sensor_id;sensor_type;location;lat;lon;timestamp;temperature;humidity
10175;DHT22;18221;38.704;0.152;2022-07-05T00:21:32;25.20;99.90
10175;DHT22;18221;38.704;0.152;2022-07-05T00:23:59;25.20;99.90
10175;DHT22;18221;38.704;0.152;2022-07-05T00:26:28;25.30;99.90
10175;DHT22;18221;38.704;0.152;2022-07-05T00:28:56;25.20;99.90
10175;DHT22;18221;38.704;0.152;2022-07-05T00:31:24;25.20;99.90
10175;DHT22;18221;38.704;0.152;2022-07-05T00:33:51;25.20;99.90
10175;DHT22;18221;38.704;0.152;2022-07-05T00:36:19;25.30;99.90
10175;DHT22;18221;38.704;0.152;2022-07-05T00:38:49;25.30;99.90
10175;DHT22;18221;38.704;0.152;2022-07-05T00:41:17;25.20;99.90
10175;DHT22;18221;38.704;0.152;2022-07-05T00:43:52;25.20;99.90
10175;DHT22;18221;38.704;0.152;2022-07-05T00:46:22;25.20;99.90
10175;DHT22;18221;38.704;0.152;2022-07-05T00:48:50;25.10;99.90
10175;DHT22;18221;38.704;0.152;2022-07-05T00:51:18;25.20;99.90
10175;DHT22;18221;38.704;0.152;2022-07-05T00:53:49;25.10;99.90
10175;DHT22;18221;38.704;0.152;2022-07-05T00:56:18;25.10;99.90
10175;DHT22;18221;38.704;0.152;2022-07-05T00:58:47;25.10;99.90
10175;DHT22;18221;38.704;0.152;2022-07-05T01:01:16;25.10;99.90
10175;DHT22;18221;38.704;0.152;2022-07-05T01:03:45;25.10;99.90
10175;DHT22;18221;38.704;0.152;2022-07-05T01:06:14;25.10;99.90
10175;DHT22;18221;38.704;0.152;2022-07-05T01:08:44;25.20;99.90
10175;DHT22;18221;38.704;0.152;2022-07-05T01:11:16;25.20;99.90
10175;DHT22;18221;38.704;0.152;2022-07-05T01:13:44;25.20;99.90
10175;DHT22;18221;38.704;0.152;2022-07-05T01:16:13;25.10;99.90
10175;DHT22;18221;38.704;0.152;2022-07-05T01:18:41;25.20;99.90
10175;DHT22;18221;38.704;0.152;2022-07-05T01:21:13;25.20;99.90
10175;DHT22;18221;38.704;0.152;2022-07-05T01:23:48;25.20;99.90
10175;DHT22;18221;38.704;0.152;2022-07-05T01:26:17;25.10;99.90
10175;DHT22;18221;38.704;0.152;2022-07-05T01:28:45;25.10;99.90
10175;DHT22;18221;38.704;0.152;2022-07-05T01:31:13;25.10;99.90
10175;DHT22;18221;38.704;0.152;2022-07-05T01:33:42;25.10;99.90
10175;DHT22;18221;38.704;0.152;2022-07-05T01:36:11;25.10;99.90
10175;DHT22;18221;38.704;0.152;2022-07-05T01:38:40;25.10;99.90
10175;DHT22;18221;38.704;0.152;2022-07-05T01:41:09;25.10;99.90
10175;DHT22;18221;38.704;0.152;2022-07-05T01:43:38;25.10;99.90
10175;DHT22;18221;38.704;0.152;2022-07-05T01:46:08;25.10;99.90
10175;DHT22;18221;38.704;0.152;2022-07-05T01:48:39;25.10;99.90
10175;DHT22;18221;38.704;0.152;2022-07-05T01:51:16;25.10;99.90
10175;DHT22;18221;38.704;0.152;2022-07-05T01:53:50;25.10;99.90
10175;DHT22;18221;38.704;0.152;2022-07-05T01:56:22;25.00;99.90
10175;DHT22;18221;38.704;0.152;2022-07-05T01:58:50;25.10;99.90
10175;DHT22;18221;38.704;0.152;2022-07-05T02:01:32;25.10;99.90
10175;DHT22;18221;38.704;0.152;2022-07-05T02:04:02;25.10;99.90
10175;DHT22;18221;38.704;0.152;2022-07-05T02:06:32;25.10;99.90
10175;DHT22;18221;38.704;0.152;2022-07-05T02:09:00;25.10;99.90
10175;DHT22;18221;38.704;0.152;2022-07-05T02:11:30;25.10;99.90
10175;DHT22;18221;38.704;0.152;2022-07-05T02:13:58;25.10;99.90
10175;DHT22;18221;38.704;0.152;2022-07-05T02:16:27;25.10;99.90
10175;DHT22;18221;38.704;0.152;2022-07-05T02:18:55;25.10;99.90
10175;DHT22;18221;38.704;0.152;2022-07-05T02:21:23;25.10;99.90
10175;DHT22;18221;38.704;0.152;2022-07-05T02:23:51;25.10;99.90
10175;DHT22;18221;38.704;0.152;2022-07-05T02:26:19;25.10;99.90
10175;DHT22;18221;38.704;0.152;2022-07-05T02:28:49;25.10;99.90
10175;DHT22;18221;38.704;0.152;2022-07-05T02:31:17;25.10;99.90
10175;DHT22;18221;38.704;0.152;2022-07-05T02:33:46;25.00;99.90
10175;DHT22;18221;38.704;0.152;2022-07-05T02:36:14;25.10;99.90
10175;DHT22;18221;38.704;0.152;2022-07-05T02:38:42;25.00;99.90
10175;DHT22;18221;38.704;0.152;2022-07-05T02:41:12;25.00;99.90
10175;DHT22;18221;38.704;0.152;2022-07-05T02:43:40;24.90;99.90
10175;DHT22;18221;38.704;0.152;2022-07-05T02:46:10;24.90;99.90
10175;DHT22;18221;38.704;0.152;2022-07-05T02:48:38;24.90;99.90
10175;DHT22;18221;38.704;0.152;2022-07-05T02:51:06;24.90;99.90
10175;DHT22;18221;38.704;0.152;2022-07-05T02:53:34;24.80;99.90
10175;DHT22;18221;38.704;0.152;2022-07-05T02:56:02;24.70;99.90
10175;DHT22;18221;38.704;0.152;2022-07-05T02:58:30;24.70;99.90
10175;DHT22;18221;38.704;0.152;2022-07-05T03:00:58;24.70;99.90
10175;DHT22;18221;38.704;0.152;2022-07-05T03:03:28;24.60;99.90
10175;DHT22;18221;38.704;0.152;2022-07-05T03:05:55;24.60;99.90
10175;DHT22;18221;38.704;0.152;2022-07-05T03:08:23;24.60;99.90
10175;DHT22;18221;38.704;0.152;2022-07-05T03:10:51;24.50;99.90
10175;DHT22;18221;38.704;0.152;2022-07-05T03:13:19;24.50;99.90
10175;DHT22;18221;38.704;0.152;2022-07-05T03:15:47;24.50;99.90
10175;DHT22;18221;38.704;0.152;2022-07-05T03:18:15;24.50;99.90
10175;DHT22;18221;38.704;0.152;2022-07-05T03:20:44;24.40;99.90
10175;DHT22;18221;38.704;0.152;2022-07-05T03:23:12;24.50;99.90
10175;DHT22;18221;38.704;0.152;2022-07-05T03:25:40;24.50;99.90
10175;DHT22;18221;38.704;0.152;2022-07-05T03:28:08;24.50;99.90
10175;DHT22;18221;38.704;0.152;2022-07-05T03:30:36;24.40;99.90
10175;DHT22;18221;38.704;0.152;2022-07-05T03:33:04;24.50;99.90
10175;DHT22;18221;38.704;0.152;2022-07-05T03:35:31;24.40;99.90
10175;DHT22;18221;38.704;0.152;2022-07-05T03:38:01;24.30;99.90
10175;DHT22;18221;38.704;0.152;2022-07-05T03:40:29;24.30;99.90
10175;DHT22;18221;38.704;0.152;2022-07-05T03:42:57;24.20;99.90
10175;DHT22;18221;38.704;0.152;2022-07-05T03:45:25;24.10;99.90
10175;DHT22;18221;38.704;0.152;2022-07-05T03:47:54;24.10;99.90
10175;DHT22;18221;38.704;0.152;2022-07-05T03:50:25;24.00;99.90
10175;DHT22;18221;38.704;0.152;2022-07-05T03:52:53;24.00;99.90
10175;DHT22;18221;38.704;0.152;2022-07-05T03:55:23;24.00;99.90
10175;DHT22;18221;38.704;0.152;2022-07-05T03:57:51;24.10;99.90
10175;DHT22;18221;38.704;0.152;2022-07-05T04:00:19;24.10;99.90
10175;DHT22;18221;38.704;0.152;2022-07-05T04:02:46;24.00;99.90
10175;DHT22;18221;38.704;0.152;2022-07-05T04:05:14;24.00;99.90
10175;DHT22;18221;38.704;0.152;2022-07-05T04:07:49;24.00;99.90
10175;DHT22;18221;38.704;0.152;2022-07-05T04:10:18;24.00;99.90
10175;DHT22;18221;38.704;0.152;2022-07-05T04:12:48;24.00;99.90
10175;DHT22;18221;38.704;0.152;2022-07-05T04:15:16;24.00;99.90
10175;DHT22;18221;38.704;0.152;2022-07-05T04:17:48;24.00;99.90
10175;DHT22;18221;38.704;0.152;2022-07-05T04:20:16;24.00;99.90
10175;DHT22;18221;38.704;0.152;2022-07-05T04:22:44;24.00;99.90
10175;DHT22;18221;38.704;0.152;2022-07-05T04:25:12;24.00;99.90
10175;DHT22;18221;38.704;0.152;2022-07-05T04:27:44;24.00;99.90
10175;DHT22;18221;38.704;0.152;2022-07-05T04:30:14;23.90;99.90
10175;DHT22;18221;38.704;0.152;2022-07-05T04:32:43;23.90;99.90
10175;DHT22;18221;38.704;0.152;2022-07-05T04:35:12;23.90;99.90
10175;DHT22;18221;38.704;0.152;2022-07-05T04:37:41;24.00;99.90
10175;DHT22;18221;38.704;0.152;2022-07-05T04:40:11;23.90;99.90
10175;DHT22;18221;38.704;0.152;2022-07-05T04:42:40;24.00;99.90
10175;DHT22;18221;38.704;0.152;2022-07-05T04:45:09;23.90;99.90
10175;DHT22;18221;38.704;0.152;2022-07-05T04:47:38;23.90;99.90
10175;DHT22;18221;38.704;0.152;2022-07-05T04:50:07;23.90;99.90
10175;DHT22;18221;38.704;0.152;2022-07-05T04:52:35;24.00;99.90
10175;DHT22;18221;38.704;0.152;2022-07-05T04:55:04;24.00;99.90
10175;DHT22;18221;38.704;0.152;2022-07-05T04:57:37;24.00;99.90
10175;DHT22;18221;38.704;0.152;2022-07-05T05:00:07;24.00;99.90
10175;DHT22;18221;38.704;0.152;2022-07-05T05:02:38;24.00;99.90
10175;DHT22;18221;38.704;0.152;2022-07-05T05:05:06;24.00;99.90
10175;DHT22;18221;38.704;0.152;2022-07-05T05:07:35;24.00;99.90
10175;DHT22;18221;38.704;0.152;2022-07-05T05:10:06;24.00;99.90
10175;DHT22;18221;38.704;0.152;2022-07-05T05:12:35;24.00;99.90
10175;DHT22;18221;38.704;0.152;2022-07-05T05:15:03;24.10;99.90
10175;DHT22;18221;38.704;0.152;2022-07-05T05:17:35;24.10;99.90
10175;DHT22;18221;38.704;0.152;2022-07-05T05:20:09;24.10;99.90
10175;DHT22;18221;38.704;0.152;2022-07-05T05:22:38;24.10;99.90
10175;DHT22;18221;38.704;0.152;2022-07-05T05:25:08;24.10;99.90
10175;DHT22;18221;38.704;0.152;2022-07-05T05:27:41;24.10;99.90
10175;DHT22;18221;38.704;0.152;2022-07-05T05:30:10;24.10;99.90
10175;DHT22;18221;38.704;0.152;2022-07-05T05:32:40;24.10;99.90
10175;DHT22;18221;38.704;0.152;2022-07-05T05:35:09;24.10;99.90
10175;DHT22;18221;38.704;0.152;2022-07-05T05:37:48;24.10;99.90
10175;DHT22;18221;38.704;0.152;2022-07-05T05:40:17;24.00;99.90
10175;DHT22;18221;38.704;0.152;2022-07-05T05:42:45;24.10;99.90
10175;DHT22;18221;38.704;0.152;2022-07-05T05:45:14;24.10;99.90
10175;DHT22;18221;38.704;0.152;2022-07-05T05:47:49;24.10;99.90
10175;DHT22;18221;38.704;0.152;2022-07-05T05:50:21;24.10;99.90
10175;DHT22;18221;38.704;0.152;2022-07-05T05:52:51;24.10;99.90
10175;DHT22;18221;38.704;0.152;2022-07-05T05:55:20;24.10;99.90
10175;DHT22;18221;38.704;0.152;2022-07-05T05:57:51;24.10;99.90
10175;DHT22;18221;38.704;0.152;2022-07-05T06:00:20;24.10;99.90
10175;DHT22;18221;38.704;0.152;2022-07-05T06:02:49;24.10;99.90
10175;DHT22;18221;38.704;0.152;2022-07-05T06:05:18;24.10;99.90
10175;DHT22;18221;38.704;0.152;2022-07-05T06:07:49;24.10;99.90
10175;DHT22;18221;38.704;0.152;2022-07-05T06:10:20;24.10;99.90
10175;DHT22;18221;38.704;0.152;2022-07-05T06:12:51;24.20;99.90
10175;DHT22;18221;38.704;0.152;2022-07-05T06:15:20;24.20;99.90
10175;DHT22;18221;38.704;0.152;2022-07-05T06:17:48;24.10;99.90
10175;DHT22;18221;38.704;0.152;2022-07-05T06:20:18;24.20;99.90
10175;DHT22;18221;38.704;0.152;2022-07-05T06:22:50;24.20;99.90
10175;DHT22;18221;38.704;0.152;2022-07-05T06:25:19;24.10;99.90
10175;DHT22;18221;38.704;0.152;2022-07-05T06:27:49;24.20;99.90
10175;DHT22;18221;38.704;0.152;2022-07-05T06:30:19;24.20;99.90
10175;DHT22;18221;38.704;0.152;2022-07-05T06:32:48;24.20;99.90
10175;DHT22;18221;38.704;0.152;2022-07-05T06:35:17;24.20;99.90
10175;DHT22;18221;38.704;0.152;2022-07-05T06:37:49;24.30;99.90
10175;DHT22;18221;38.704;0.152;2022-07-05T06:40:20;24.30;99.90
10175;DHT22;18221;38.704;0.152;2022-07-05T06:42:49;24.30;99.90
10175;DHT22;18221;38.704;0.152;2022-07-05T06:45:19;24.30;99.90
10175;DHT22;18221;38.704;0.152;2022-07-05T06:47:54;24.30;99.90
10175;DHT22;18221;38.704;0.152;2022-07-05T06:50:23;24.40;99.90
10175;DHT22;18221;38.704;0.152;2022-07-05T06:52:53;24.40;99.90
10175;DHT22;18221;38.704;0.152;2022-07-05T06:55:21;24.40;99.90
10175;DHT22;18221;38.704;0.152;2022-07-05T06:57:56;24.40;99.90
10175;DHT22;18221;38.704;0.152;2022-07-05T07:00:26;24.40;99.90
10175;DHT22;18221;38.704;0.152;2022-07-05T07:02:55;24.50;99.90
10175;DHT22;18221;38.704;0.152;2022-07-05T07:05:23;24.50;99.90
10175;DHT22;18221;38.704;0.152;2022-07-05T07:07:53;24.50;99.90
10175;DHT22;18221;38.704;0.152;2022-07-05T07:10:38;24.50;99.90
10175;DHT22;18221;38.704;0.152;2022-07-05T07:13:06;24.50;99.90
10175;DHT22;18221;38.704;0.152;2022-07-05T07:15:34;24.60;99.90
10175;DHT22;18221;38.704;0.152;2022-07-05T07:18:04;24.60;99.90
10175;DHT22;18221;38.704;0.152;2022-07-05T07:20:32;24.70;99.90
10175;DHT22;18221;38.704;0.152;2022-07-05T07:23:01;24.80;99.90
10175;DHT22;18221;38.704;0.152;2022-07-05T07:25:29;24.90;99.90
10175;DHT22;18221;38.704;0.152;2022-07-05T07:27:57;25.00;99.90
10175;DHT22;18221;38.704;0.152;2022-07-05T07:30:26;25.10;99.90
10175;DHT22;18221;38.704;0.152;2022-07-05T07:32:55;25.20;99.90
10175;DHT22;18221;38.704;0.152;2022-07-05T07:35:23;25.30;99.90
10175;DHT22;18221;38.704;0.152;2022-07-05T07:37:51;25.40;99.90
10175;DHT22;18221;38.704;0.152;2022-07-05T07:40:21;25.40;99.90
10175;DHT22;18221;38.704;0.152;2022-07-05T07:42:49;25.40;99.90
10175;DHT22;18221;38.704;0.152;2022-07-05T07:45:16;25.40;99.90
10175;DHT22;18221;38.704;0.152;2022-07-05T07:47:44;25.50;99.90
10175;DHT22;18221;38.704;0.152;2022-07-05T07:50:12;25.30;99.90
10175;DHT22;18221;38.704;0.152;2022-07-05T07:52:40;25.30;99.90
10175;DHT22;18221;38.704;0.152;2022-07-05T07:55:09;25.20;99.90
10175;DHT22;18221;38.704;0.152;2022-07-05T07:57:38;25.10;99.90
10175;DHT22;18221;38.704;0.152;2022-07-05T08:00:07;25.10;99.90
10175;DHT22;18221;38.704;0.152;2022-07-05T08:02:35;25.10;99.90
10175;DHT22;18221;38.704;0.152;2022-07-05T08:05:04;25.10;99.90
10175;DHT22;18221;38.704;0.152;2022-07-05T08:07:35;25.10;99.90
10175;DHT22;18221;38.704;0.152;2022-07-05T08:10:04;25.10;99.90
10175;DHT22;18221;38.704;0.152;2022-07-05T08:12:32;25.20;99.90
10175;DHT22;18221;38.704;0.152;2022-07-05T08:15:01;25.40;99.90
10175;DHT22;18221;38.704;0.152;2022-07-05T08:17:29;25.50;99.90
10175;DHT22;18221;38.704;0.152;2022-07-05T08:19:57;25.60;99.90
10175;DHT22;18221;38.704;0.152;2022-07-05T08:22:42;25.60;99.90
10175;DHT22;18221;38.704;0.152;2022-07-05T08:25:10;25.60;99.90
10175;DHT22;18221;38.704;0.152;2022-07-05T08:27:40;25.50;99.90
10175;DHT22;18221;38.704;0.152;2022-07-05T08:30:11;25.50;99.90
10175;DHT22;18221;38.704;0.152;2022-07-05T08:32:39;25.60;99.90
10175;DHT22;18221;38.704;0.152;2022-07-05T08:35:08;25.70;99.90
10175;DHT22;18221;38.704;0.152;2022-07-05T08:37:36;25.80;99.90
10175;DHT22;18221;38.704;0.152;2022-07-05T08:40:06;25.90;99.90
10175;DHT22;18221;38.704;0.152;2022-07-05T08:42:37;26.00;99.90
10175;DHT22;18221;38.704;0.152;2022-07-05T08:45:06;26.10;99.90
10175;DHT22;18221;38.704;0.152;2022-07-05T08:47:39;26.10;99.90
10175;DHT22;18221;38.704;0.152;2022-07-05T08:50:09;26.20;99.90
10175;DHT22;18221;38.704;0.152;2022-07-05T08:52:40;26.40;99.90
10175;DHT22;18221;38.704;0.152;2022-07-05T08:55:08;26.50;99.90
10175;DHT22;18221;38.704;0.152;2022-07-05T08:57:38;26.70;99.90
10175;DHT22;18221;38.704;0.152;2022-07-05T09:00:09;26.70;99.90
10175;DHT22;18221;38.704;0.152;2022-07-05T09:02:39;26.80;99.90
10175;DHT22;18221;38.704;0.152;2022-07-05T09:05:09;27.00;99.90
10175;DHT22;18221;38.704;0.152;2022-07-05T09:07:48;27.00;99.90
10175;DHT22;18221;38.704;0.152;2022-07-05T09:10:24;27.00;99.90
10175;DHT22;18221;38.704;0.152;2022-07-05T09:12:54;26.90;99.90
10175;DHT22;18221;38.704;0.152;2022-07-05T09:15:25;26.90;99.90
10175;DHT22;18221;38.704;0.152;2022-07-05T09:17:53;26.80;99.90
10175;DHT22;18221;38.704;0.152;2022-07-05T09:20:21;26.80;99.90
10175;DHT22;18221;38.704;0.152;2022-07-05T09:22:50;26.80;99.90
10175;DHT22;18221;38.704;0.152;2022-07-05T09:25:21;26.90;99.90
10175;DHT22;18221;38.704;0.152;2022-07-05T09:27:52;26.90;99.90
10175;DHT22;18221;38.704;0.152;2022-07-05T09:30:28;26.90;99.90
10175;DHT22;18221;38.704;0.152;2022-07-05T09:33:02;27.00;99.90
10175;DHT22;18221;38.704;0.152;2022-07-05T09:35:35;27.00;99.90
10175;DHT22;18221;38.704;0.152;2022-07-05T09:38:05;27.00;99.90
10175;DHT22;18221;38.704;0.152;2022-07-05T09:40:46;27.10;99.90
10175;DHT22;18221;38.704;0.152;2022-07-05T09:43:16;27.20;99.90
10175;DHT22;18221;38.704;0.152;2022-07-05T09:45:56;27.20;99.90
10175;DHT22;18221;38.704;0.152;2022-07-05T09:48:25;27.30;99.90
10175;DHT22;18221;38.704;0.152;2022-07-05T09:51:04;27.40;99.90
10175;DHT22;18221;38.704;0.152;2022-07-05T09:53:46;27.20;99.90
10175;DHT22;18221;38.704;0.152;2022-07-05T09:56:15;27.00;99.90
10175;DHT22;18221;38.704;0.152;2022-07-05T09:58:43;27.00;99.90
10175;DHT22;18221;38.704;0.152;2022-07-05T10:01:26;27.00;99.90
10175;DHT22;18221;38.704;0.152;2022-07-05T10:03:56;27.00;99.90
10175;DHT22;18221;38.704;0.152;2022-07-05T10:06:25;27.00;99.90
10175;DHT22;18221;38.704;0.152;2022-07-05T10:08:53;26.80;99.90
10175;DHT22;18221;38.704;0.152;2022-07-05T10:11:23;26.70;99.90
10175;DHT22;18221;38.704;0.152;2022-07-05T10:13:52;26.50;99.90
10175;DHT22;18221;38.704;0.152;2022-07-05T10:16:22;26.40;99.90
10175;DHT22;18221;38.704;0.152;2022-07-05T10:18:54;26.50;99.90
10175;DHT22;18221;38.704;0.152;2022-07-05T10:21:24;26.70;99.90
10175;DHT22;18221;38.704;0.152;2022-07-05T10:23:53;26.90;99.90
10175;DHT22;18221;38.704;0.152;2022-07-05T10:26:22;27.10;99.90
10175;DHT22;18221;38.704;0.152;2022-07-05T10:28:52;27.30;99.90
10175;DHT22;18221;38.704;0.152;2022-07-05T10:31:23;27.40;99.90
10175;DHT22;18221;38.704;0.152;2022-07-05T10:33:53;27.50;99.90
10175;DHT22;18221;38.704;0.152;2022-07-05T10:36:23;27.50;99.90
10175;DHT22;18221;38.704;0.152;2022-07-05T10:38:51;27.50;99.90
10175;DHT22;18221;38.704;0.152;2022-07-05T10:41:23;27.60;99.90
10175;DHT22;18221;38.704;0.152;2022-07-05T10:43:53;27.60;99.90
10175;DHT22;18221;38.704;0.152;2022-07-05T10:46:36;27.60;99.90
10175;DHT22;18221;38.704;0.152;2022-07-05T10:49:13;27.60;99.90
10175;DHT22;18221;38.704;0.152;2022-07-05T10:51:43;27.60;99.90
10175;DHT22;18221;38.704;0.152;2022-07-05T10:54:11;27.80;99.90
10175;DHT22;18221;38.704;0.152;2022-07-05T10:56:39;27.80;99.90
10175;DHT22;18221;38.704;0.152;2022-07-05T10:59:08;27.80;99.90
10175;DHT22;18221;38.704;0.152;2022-07-05T11:01:41;27.80;99.90
10175;DHT22;18221;38.704;0.152;2022-07-05T11:04:34;27.80;99.90
10175;DHT22;18221;38.704;0.152;2022-07-05T11:07:04;27.80;99.90
10175;DHT22;18221;38.704;0.152;2022-07-05T11:09:33;27.80;99.90
10175;DHT22;18221;38.704;0.152;2022-07-05T11:12:17;27.80;99.90
10175;DHT22;18221;38.704;0.152;2022-07-05T11:14:46;27.80;99.90
10175;DHT22;18221;38.704;0.152;2022-07-05T11:17:24;27.90;99.90
10175;DHT22;18221;38.704;0.152;2022-07-05T11:20:17;28.10;99.90
10175;DHT22;18221;38.704;0.152;2022-07-05T11:23:07;28.20;99.90
10175;DHT22;18221;38.704;0.152;2022-07-05T11:25:41;28.10;99.90
10175;DHT22;18221;38.704;0.152;2022-07-05T11:28:17;28.30;99.90
10175;DHT22;18221;38.704;0.152;2022-07-05T11:30:54;28.20;99.90
10175;DHT22;18221;38.704;0.152;2022-07-05T11:33:37;28.20;99.90
10175;DHT22;18221;38.704;0.152;2022-07-05T11:36:20;28.10;99.90
10175;DHT22;18221;38.704;0.152;2022-07-05T11:39:11;27.90;99.90
10175;DHT22;18221;38.704;0.152;2022-07-05T11:41:44;27.80;99.90
10175;DHT22;18221;38.704;0.152;2022-07-05T11:44:13;27.80;99.90
10175;DHT22;18221;38.704;0.152;2022-07-05T11:46:41;27.70;99.90
10175;DHT22;18221;38.704;0.152;2022-07-05T11:49:10;27.70;99.90
10175;DHT22;18221;38.704;0.152;2022-07-05T11:51:39;27.70;99.90
10175;DHT22;18221;38.704;0.152;2022-07-05T11:54:09;27.60;99.90
10175;DHT22;18221;38.704;0.152;2022-07-05T11:56:38;27.60;99.90
10175;DHT22;18221;38.704;0.152;2022-07-05T11:59:17;27.60;99.90
10175;DHT22;18221;38.704;0.152;2022-07-05T12:01:46;27.60;99.90
10175;DHT22;18221;38.704;0.152;2022-07-05T12:04:21;27.50;99.90
10175;DHT22;18221;38.704;0.152;2022-07-05T12:06:51;27.40;99.90
10175;DHT22;18221;38.704;0.152;2022-07-05T12:09:23;27.30;99.90
10175;DHT22;18221;38.704;0.152;2022-07-05T12:11:52;27.20;99.90
10175;DHT22;18221;38.704;0.152;2022-07-05T12:14:45;27.20;99.90
10175;DHT22;18221;38.704;0.152;2022-07-05T12:17:15;27.10;99.90
10175;DHT22;18221;38.704;0.152;2022-07-05T12:19:45;27.10;99.90
10175;DHT22;18221;38.704;0.152;2022-07-05T12:22:14;27.00;99.90
10175;DHT22;18221;38.704;0.152;2022-07-05T12:24:42;27.00;99.90
10175;DHT22;18221;38.704;0.152;2022-07-05T12:27:10;26.90;99.90
10175;DHT22;18221;38.704;0.152;2022-07-05T12:29:39;26.90;99.90
10175;DHT22;18221;38.704;0.152;2022-07-05T12:32:07;26.90;99.90
10175;DHT22;18221;38.704;0.152;2022-07-05T12:34:35;26.80;99.90
10175;DHT22;18221;38.704;0.152;2022-07-05T12:37:04;26.80;99.90
10175;DHT22;18221;38.704;0.152;2022-07-05T12:39:34;26.70;99.90
10175;DHT22;18221;38.704;0.152;2022-07-05T12:42:02;26.70;99.90
10175;DHT22;18221;38.704;0.152;2022-07-05T12:44:30;26.70;99.90
10175;DHT22;18221;38.704;0.152;2022-07-05T12:47:04;26.80;99.90
10175;DHT22;18221;38.704;0.152;2022-07-05T12:49:32;26.80;99.90
10175;DHT22;18221;38.704;0.152;2022-07-05T12:52:20;26.80;99.90
10175;DHT22;18221;38.704;0.152;2022-07-05T12:55:09;26.70;99.90
10175;DHT22;18221;38.704;0.152;2022-07-05T12:57:54;26.60;99.90
10175;DHT22;18221;38.704;0.152;2022-07-05T13:00:29;26.50;99.90
10175;DHT22;18221;38.704;0.152;2022-07-05T13:02:57;26.40;99.90
10175;DHT22;18221;38.704;0.152;2022-07-05T13:05:26;26.20;99.90
10175;DHT22;18221;38.704;0.152;2022-07-05T13:07:54;26.20;99.90
10175;DHT22;18221;38.704;0.152;2022-07-05T13:10:25;26.20;99.90
10175;DHT22;18221;38.704;0.152;2022-07-05T13:12:57;26.20;99.90
10175;DHT22;18221;38.704;0.152;2022-07-05T13:15:25;26.40;99.90
10175;DHT22;18221;38.704;0.152;2022-07-05T13:17:53;26.70;99.90
10175;DHT22;18221;38.704;0.152;2022-07-05T13:20:21;27.10;99.90
10175;DHT22;18221;38.704;0.152;2022-07-05T13:22:49;27.40;99.90
10175;DHT22;18221;38.704;0.152;2022-07-05T13:25:17;27.50;99.90
10175;DHT22;18221;38.704;0.152;2022-07-05T13:27:46;27.50;99.90
10175;DHT22;18221;38.704;0.152;2022-07-05T13:30:14;27.40;99.90
10175;DHT22;18221;38.704;0.152;2022-07-05T13:32:42;27.40;99.90
10175;DHT22;18221;38.704;0.152;2022-07-05T13:35:10;27.50;99.90
10175;DHT22;18221;38.704;0.152;2022-07-05T13:37:38;27.60;99.90
10175;DHT22;18221;38.704;0.152;2022-07-05T13:40:07;27.70;99.90
10175;DHT22;18221;38.704;0.152;2022-07-05T13:42:36;27.80;99.90
10175;DHT22;18221;38.704;0.152;2022-07-05T13:45:06;27.80;99.90
10175;DHT22;18221;38.704;0.152;2022-07-05T13:47:35;27.90;99.90
10175;DHT22;18221;38.704;0.152;2022-07-05T13:50:04;28.10;99.90
10175;DHT22;18221;38.704;0.152;2022-07-05T13:52:49;28.20;99.90
10175;DHT22;18221;38.704;0.152;2022-07-05T13:55:17;28.20;99.90
10175;DHT22;18221;38.704;0.152;2022-07-05T13:57:45;28.10;99.90
10175;DHT22;18221;38.704;0.152;2022-07-05T14:00:15;28.10;99.90
10175;DHT22;18221;38.704;0.152;2022-07-05T14:02:43;28.00;99.90
10175;DHT22;18221;38.704;0.152;2022-07-05T14:05:12;27.90;99.90
10175;DHT22;18221;38.704;0.152;2022-07-05T14:07:42;28.00;99.90
10175;DHT22;18221;38.704;0.152;2022-07-05T14:10:10;28.20;99.90
10175;DHT22;18221;38.704;0.152;2022-07-05T14:12:38;28.40;99.90
10175;DHT22;18221;38.704;0.152;2022-07-05T14:15:07;28.40;99.90
10175;DHT22;18221;38.704;0.152;2022-07-05T14:17:37;28.40;99.90
10175;DHT22;18221;38.704;0.152;2022-07-05T14:20:06;28.50;99.90
10175;DHT22;18221;38.704;0.152;2022-07-05T14:22:35;28.60;99.90
10175;DHT22;18221;38.704;0.152;2022-07-05T14:25:03;28.70;99.90
10175;DHT22;18221;38.704;0.152;2022-07-05T14:27:32;28.80;99.90
10175;DHT22;18221;38.704;0.152;2022-07-05T14:30:00;28.90;99.90
10175;DHT22;18221;38.704;0.152;2022-07-05T14:32:28;28.80;99.90
10175;DHT22;18221;38.704;0.152;2022-07-05T14:34:58;28.80;99.90
10175;DHT22;18221;38.704;0.152;2022-07-05T14:37:25;28.80;99.90
10175;DHT22;18221;38.704;0.152;2022-07-05T14:39:53;28.90;99.90
10175;DHT22;18221;38.704;0.152;2022-07-05T14:42:22;29.10;99.90
10175;DHT22;18221;38.704;0.152;2022-07-05T14:44:49;29.20;99.90
10175;DHT22;18221;38.704;0.152;2022-07-05T14:47:17;29.20;99.90
10175;DHT22;18221;38.704;0.152;2022-07-05T14:49:45;29.20;99.90
10175;DHT22;18221;38.704;0.152;2022-07-05T14:52:14;29.20;99.90
10175;DHT22;18221;38.704;0.152;2022-07-05T14:54:43;29.20;99.90
10175;DHT22;18221;38.704;0.152;2022-07-05T14:57:11;29.20;99.90
10175;DHT22;18221;38.704;0.152;2022-07-05T14:59:38;29.10;99.90
10175;DHT22;18221;38.704;0.152;2022-07-05T15:02:07;28.90;99.90
10175;DHT22;18221;38.704;0.152;2022-07-05T15:04:35;28.90;99.90
10175;DHT22;18221;38.704;0.152;2022-07-05T15:07:04;28.80;99.90
10175;DHT22;18221;38.704;0.152;2022-07-05T15:09:34;28.70;99.90
10175;DHT22;18221;38.704;0.152;2022-07-05T15:12:02;28.70;99.90
10175;DHT22;18221;38.704;0.152;2022-07-05T15:14:30;28.70;99.90
10175;DHT22;18221;38.704;0.152;2022-07-05T15:16:58;28.70;99.90
10175;DHT22;18221;38.704;0.152;2022-07-05T15:19:26;28.60;99.90
10175;DHT22;18221;38.704;0.152;2022-07-05T15:21:54;28.60;99.90
10175;DHT22;18221;38.704;0.152;2022-07-05T15:24:22;28.50;99.90
10175;DHT22;18221;38.704;0.152;2022-07-05T15:26:53;28.40;99.90
10175;DHT22;18221;38.704;0.152;2022-07-05T15:29:21;28.20;99.90
10175;DHT22;18221;38.704;0.152;2022-07-05T15:31:48;28.20;99.90
10175;DHT22;18221;38.704;0.152;2022-07-05T15:34:16;28.00;99.90
10175;DHT22;18221;38.704;0.152;2022-07-05T15:36:44;27.90;99.90
10175;DHT22;18221;38.704;0.152;2022-07-05T15:39:12;27.80;99.90
10175;DHT22;18221;38.704;0.152;2022-07-05T15:41:40;27.70;99.90
10175;DHT22;18221;38.704;0.152;2022-07-05T15:44:10;27.60;99.90
10175;DHT22;18221;38.704;0.152;2022-07-05T15:46:38;27.50;99.90
10175;DHT22;18221;38.704;0.152;2022-07-05T15:49:22;27.50;99.90
10175;DHT22;18221;38.704;0.152;2022-07-05T15:51:50;27.60;99.90
10175;DHT22;18221;38.704;0.152;2022-07-05T15:54:18;27.50;99.90
10175;DHT22;18221;38.704;0.152;2022-07-05T15:56:46;27.50;99.90
10175;DHT22;18221;38.704;0.152;2022-07-05T15:59:16;27.50;99.90
10175;DHT22;18221;38.704;0.152;2022-07-05T16:01:43;27.40;99.90
10175;DHT22;18221;38.704;0.152;2022-07-05T16:04:11;27.30;99.90
10175;DHT22;18221;38.704;0.152;2022-07-05T16:06:39;27.30;99.90
10175;DHT22;18221;38.704;0.152;2022-07-05T16:09:07;27.20;99.90